sensor_id;sensor_type;location;lat;lon;timestamp;P1;durP1;ratioP1;P2;durP2;ratioP2
17214;SDS011;8723;51.502;6.918;2024-02-14T00:00:57;4.97;;;4.03;;
17214;SDS011;8723;51.502;6.918;2024-02-14T00:03:26;4.80;;;4.10;;
17214;SDS011;8723;51.502;6.918;2024-02-14T00:05:54;6.33;;;4.80;;
17214;SDS011;8723;51.502;6.918;2024-02-14T00:08:22;5.73;;;3.90;;
17214;SDS011;8723;51.502;6.918;2024-02-14T00:10:52;4.77;;;3.87;;
17214;SDS011;8723;51.502;6.918;2024-02-14T00:13:19;5.93;;;3.93;;
17214;SDS011;8723;51.502;6.918;2024-02-14T00:15:46;7.30;;;4.77;;
17214;SDS011;8723;51.502;6.918;2024-02-14T00:18:14;4.77;;;4.37;;
17214;SDS011;8723;51.502;6.918;2024-02-14T00:20:41;6.20;;;4.67;;
17214;SDS011;8723;51.502;6.918;2024-02-14T00:25:36;5.80;;;4.85;;
17214;SDS011;8723;51.502;6.918;2024-02-14T00:28:05;5.73;;;4.47;;
17214;SDS011;8723;51.502;6.918;2024-02-14T00:30:33;8.05;;;5.30;;
17214;SDS011;8723;51.502;6.918;2024-02-14T00:33:01;5.43;;;4.90;;
17214;SDS011;8723;51.502;6.918;2024-02-14T00:35:28;5.03;;;4.63;;
17214;SDS011;8723;51.502;6.918;2024-02-14T00:37:56;6.63;;;4.73;;
17214;SDS011;8723;51.502;6.918;2024-02-14T00:40:23;4.90;;;4.13;;
17214;SDS011;8723;51.502;6.918;2024-02-14T00:42:50;5.83;;;4.43;;
17214;SDS011;8723;51.502;6.918;2024-02-14T00:45:19;6.37;;;4.90;;
17214;SDS011;8723;51.502;6.918;2024-02-14T00:47:46;6.17;;;4.60;;
17214;SDS011;8723;51.502;6.918;2024-02-14T00:50:13;5.83;;;4.47;;
17214;SDS011;8723;51.502;6.918;2024-02-14T00:52:40;5.80;;;4.50;;
17214;SDS011;8723;51.502;6.918;2024-02-14T00:55:08;5.07;;;4.60;;
17214;SDS011;8723;51.502;6.918;2024-02-14T00:57:36;5.10;;;4.60;;
17214;SDS011;8723;51.502;6.918;2024-02-14T01:00:04;5.93;;;4.65;;
17214;SDS011;8723;51.502;6.918;2024-02-14T01:02:33;7.20;;;5.10;;
17214;SDS011;8723;51.502;6.918;2024-02-14T01:05:00;4.57;;;4.10;;
17214;SDS011;8723;51.502;6.918;2024-02-14T01:07:29;7.88;;;5.10;;
17214;SDS011;8723;51.502;6.918;2024-02-14T01:09:56;6.23;;;4.67;;
17214;SDS011;8723;51.502;6.918;2024-02-14T01:12:23;7.47;;;4.70;;
17214;SDS011;8723;51.502;6.918;2024-02-14T01:14:51;5.63;;;4.30;;
17214;SDS011;8723;51.502;6.918;2024-02-14T01:17:18;7.80;;;4.90;;
17214;SDS011;8723;51.502;6.918;2024-02-14T01:22:14;6.03;;;4.70;;
17214;SDS011;8723;51.502;6.918;2024-02-14T01:24:42;5.40;;;4.80;;
17214;SDS011;8723;51.502;6.918;2024-02-14T01:27:10;5.30;;;4.57;;
17214;SDS011;8723;51.502;6.918;2024-02-14T01:29:37;5.75;;;4.47;;
17214;SDS011;8723;51.502;6.918;2024-02-14T01:32:04;5.07;;;4.27;;
17214;SDS011;8723;51.502;6.918;2024-02-14T01:34:32;4.80;;;4.30;;
17214;SDS011;8723;51.502;6.918;2024-02-14T01:36:59;4.40;;;3.50;;
17214;SDS011;8723;51.502;6.918;2024-02-14T01:39:27;5.47;;;4.25;;
17214;SDS011;8723;51.502;6.918;2024-02-14T01:41:56;5.70;;;4.17;;
17214;SDS011;8723;51.502;6.918;2024-02-14T01:44:24;5.13;;;4.00;;
17214;SDS011;8723;51.502;6.918;2024-02-14T01:46:51;4.77;;;4.10;;
17214;SDS011;8723;51.502;6.918;2024-02-14T01:49:19;3.80;;;3.40;;
17214;SDS011;8723;51.502;6.918;2024-02-14T01:51:46;4.13;;;3.60;;
17214;SDS011;8723;51.502;6.918;2024-02-14T01:54:13;4.73;;;3.57;;
17214;SDS011;8723;51.502;6.918;2024-02-14T01:56:43;3.83;;;3.03;;
17214;SDS011;8723;51.502;6.918;2024-02-14T01:59:11;3.87;;;3.37;;
17214;SDS011;8723;51.502;6.918;2024-02-14T02:01:38;6.00;;;3.30;;
17214;SDS011;8723;51.502;6.918;2024-02-14T02:04:07;3.20;;;3.00;;
17214;SDS011;8723;51.502;6.918;2024-02-14T02:06:35;4.27;;;3.40;;
17214;SDS011;8723;51.502;6.918;2024-02-14T02:09:03;4.27;;;3.07;;
17214;SDS011;8723;51.502;6.918;2024-02-14T02:11:41;3.40;;;2.70;;
17214;SDS011;8723;51.502;6.918;2024-02-14T02:14:10;3.30;;;3.00;;
17214;SDS011;8723;51.502;6.918;2024-02-14T02:16:38;5.00;;;3.10;;
17214;SDS011;8723;51.502;6.918;2024-02-14T02:19:06;4.63;;;3.10;;
17214;SDS011;8723;51.502;6.918;2024-02-14T02:21:36;3.20;;;2.90;;
17214;SDS011;8723;51.502;6.918;2024-02-14T02:24:05;4.63;;;2.50;;
17214;SDS011;8723;51.502;6.918;2024-02-14T02:26:33;4.80;;;3.00;;
17214;SDS011;8723;51.502;6.918;2024-02-14T02:29:00;4.30;;;3.10;;
17214;SDS011;8723;51.502;6.918;2024-02-14T02:31:27;4.10;;;2.87;;
17214;SDS011;8723;51.502;6.918;2024-02-14T02:33:54;4.97;;;2.63;;
17214;SDS011;8723;51.502;6.918;2024-02-14T02:36:22;4.10;;;2.70;;
17214;SDS011;8723;51.502;6.918;2024-02-14T02:38:49;4.00;;;2.73;;
17214;SDS011;8723;51.502;6.918;2024-02-14T02:41:20;3.20;;;2.90;;
17214;SDS011;8723;51.502;6.918;2024-02-14T02:43:49;3.93;;;2.60;;
17214;SDS011;8723;51.502;6.918;2024-02-14T02:46:20;3.17;;;2.70;;
17214;SDS011;8723;51.502;6.918;2024-02-14T02:48:51;5.13;;;3.00;;
17214;SDS011;8723;51.502;6.918;2024-02-14T02:51:21;2.73;;;2.10;;
17214;SDS011;8723;51.502;6.918;2024-02-14T02:53:51;3.63;;;2.40;;
17214;SDS011;8723;51.502;6.918;2024-02-14T02:56:22;4.07;;;2.40;;
17214;SDS011;8723;51.502;6.918;2024-02-14T02:58:53;5.17;;;2.50;;
17214;SDS011;8723;51.502;6.918;2024-02-14T03:01:23;4.50;;;2.40;;
17214;SDS011;8723;51.502;6.918;2024-02-14T03:03:57;2.77;;;2.53;;
17214;SDS011;8723;51.502;6.918;2024-02-14T03:06:27;3.33;;;2.40;;
17214;SDS011;8723;51.502;6.918;2024-02-14T03:08:57;3.03;;;2.20;;
17214;SDS011;8723;51.502;6.918;2024-02-14T03:11:29;3.47;;;2.27;;
17214;SDS011;8723;51.502;6.918;2024-02-14T03:13:58;2.63;;;2.30;;
17214;SDS011;8723;51.502;6.918;2024-02-14T03:16:28;2.60;;;2.37;;
17214;SDS011;8723;51.502;6.918;2024-02-14T03:18:58;3.63;;;2.40;;
17214;SDS011;8723;51.502;6.918;2024-02-14T03:21:27;2.50;;;2.30;;
17214;SDS011;8723;51.502;6.918;2024-02-14T03:23:58;2.33;;;2.13;;
17214;SDS011;8723;51.502;6.918;2024-02-14T03:26:27;3.23;;;2.03;;
17214;SDS011;8723;51.502;6.918;2024-02-14T03:29:01;2.87;;;2.07;;
17214;SDS011;8723;51.502;6.918;2024-02-14T03:31:34;2.93;;;2.33;;
17214;SDS011;8723;51.502;6.918;2024-02-14T03:34:03;5.10;;;2.13;;
17214;SDS011;8723;51.502;6.918;2024-02-14T03:36:33;2.53;;;2.27;;
17214;SDS011;8723;51.502;6.918;2024-02-14T03:39:02;2.63;;;2.17;;
17214;SDS011;8723;51.502;6.918;2024-02-14T03:41:33;2.77;;;2.10;;
17214;SDS011;8723;51.502;6.918;2024-02-14T03:44:05;3.57;;;2.27;;
17214;SDS011;8723;51.502;6.918;2024-02-14T03:46:35;2.40;;;2.20;;
17214;SDS011;8723;51.502;6.918;2024-02-14T03:49:05;2.67;;;2.47;;
17214;SDS011;8723;51.502;6.918;2024-02-14T03:51:35;4.57;;;2.50;;
17214;SDS011;8723;51.502;6.918;2024-02-14T03:54:04;2.57;;;2.40;;
17214;SDS011;8723;51.502;6.918;2024-02-14T03:56:33;2.83;;;2.50;;
17214;SDS011;8723;51.502;6.918;2024-02-14T03:59:02;3.00;;;2.80;;
17214;SDS011;8723;51.502;6.918;2024-02-14T04:01:34;3.67;;;3.13;;
17214;SDS011;8723;51.502;6.918;2024-02-14T04:04:04;2.97;;;2.67;;
17214;SDS011;8723;51.502;6.918;2024-02-14T04:06:33;3.93;;;3.50;;
17214;SDS011;8723;51.502;6.918;2024-02-14T04:09:03;4.90;;;3.40;;
17214;SDS011;8723;51.502;6.918;2024-02-14T04:11:33;3.83;;;3.07;;
17214;SDS011;8723;51.502;6.918;2024-02-14T04:14:03;4.23;;;3.23;;
17214;SDS011;8723;51.502;6.918;2024-02-14T04:16:32;2.83;;;2.63;;
17214;SDS011;8723;51.502;6.918;2024-02-14T04:19:00;2.90;;;2.70;;
17214;SDS011;8723;51.502;6.918;2024-02-14T04:21:28;3.33;;;3.10;;
17214;SDS011;8723;51.502;6.918;2024-02-14T04:23:56;5.53;;;3.37;;
17214;SDS011;8723;51.502;6.918;2024-02-14T04:26:23;6.30;;;3.63;;
17214;SDS011;8723;51.502;6.918;2024-02-14T04:28:51;4.97;;;3.27;;
17214;SDS011;8723;51.502;6.918;2024-02-14T04:31:19;4.17;;;3.33;;
17214;SDS011;8723;51.502;6.918;2024-02-14T04:33:46;4.50;;;4.10;;
17214;SDS011;8723;51.502;6.918;2024-02-14T04:36:18;4.20;;;3.80;;
17214;SDS011;8723;51.502;6.918;2024-02-14T04:38:46;4.87;;;3.57;;
17214;SDS011;8723;51.502;6.918;2024-02-14T04:41:14;5.33;;;3.97;;
17214;SDS011;8723;51.502;6.918;2024-02-14T04:43:41;6.27;;;4.17;;
17214;SDS011;8723;51.502;6.918;2024-02-14T04:46:09;4.40;;;3.80;;
17214;SDS011;8723;51.502;6.918;2024-02-14T04:48:36;5.07;;;4.53;;
17214;SDS011;8723;51.502;6.918;2024-02-14T04:51:04;4.90;;;4.50;;
17214;SDS011;8723;51.502;6.918;2024-02-14T04:53:33;4.00;;;3.60;;
17214;SDS011;8723;51.502;6.918;2024-02-14T04:56:00;5.03;;;4.53;;
17214;SDS011;8723;51.502;6.918;2024-02-14T04:58:28;5.33;;;4.40;;
17214;SDS011;8723;51.502;6.918;2024-02-14T05:00:55;4.77;;;4.10;;
17214;SDS011;8723;51.502;6.918;2024-02-14T05:03:22;5.27;;;4.23;;
17214;SDS011;8723;51.502;6.918;2024-02-14T05:05:51;4.23;;;3.83;;
17214;SDS011;8723;51.502;6.918;2024-02-14T05:08:18;6.00;;;3.97;;
17214;SDS011;8723;51.502;6.918;2024-02-14T05:10:47;5.60;;;4.40;;
17214;SDS011;8723;51.502;6.918;2024-02-14T05:13:14;4.27;;;3.97;;
17214;SDS011;8723;51.502;6.918;2024-02-14T05:15:41;7.13;;;5.63;;
17214;SDS011;8723;51.502;6.918;2024-02-14T05:18:09;4.90;;;4.50;;
17214;SDS011;8723;51.502;6.918;2024-02-14T05:20:36;5.63;;;4.97;;
17214;SDS011;8723;51.502;6.918;2024-02-14T05:23:04;5.43;;;4.93;;
17214;SDS011;8723;51.502;6.918;2024-02-14T05:25:31;5.37;;;4.43;;
17214;SDS011;8723;51.502;6.918;2024-02-14T05:28:00;5.07;;;4.60;;
17214;SDS011;8723;51.502;6.918;2024-02-14T05:30:27;6.03;;;4.23;;
17214;SDS011;8723;51.502;6.918;2024-02-14T05:32:54;4.60;;;4.20;;
17214;SDS011;8723;51.502;6.918;2024-02-14T05:35:22;4.23;;;3.80;;
17214;SDS011;8723;51.502;6.918;2024-02-14T05:37:49;4.33;;;4.03;;
17214;SDS011;8723;51.502;6.918;2024-02-14T05:40:17;5.67;;;5.10;;
17214;SDS011;8723;51.502;6.918;2024-02-14T05:42:44;7.90;;;5.23;;
17214;SDS011;8723;51.502;6.918;2024-02-14T05:45:13;7.13;;;5.60;;
17214;SDS011;8723;51.502;6.918;2024-02-14T05:47:40;5.40;;;5.00;;
17214;SDS011;8723;51.502;6.918;2024-02-14T05:50:07;5.13;;;4.60;;
17214;SDS011;8723;51.502;6.918;2024-02-14T05:52:36;5.83;;;5.23;;
17214;SDS011;8723;51.502;6.918;2024-02-14T05:55:04;5.53;;;5.03;;
17214;SDS011;8723;51.502;6.918;2024-02-14T05:57:31;5.63;;;5.03;;
17214;SDS011;8723;51.502;6.918;2024-02-14T05:59:58;5.50;;;5.00;;
17214;SDS011;8723;51.502;6.918;2024-02-14T06:02:27;5.53;;;5.03;;
17214;SDS011;8723;51.502;6.918;2024-02-14T06:04:54;7.27;;;6.20;;
17214;SDS011;8723;51.502;6.918;2024-02-14T06:07:21;5.97;;;5.47;;
17214;SDS011;8723;51.502;6.918;2024-02-14T06:09:49;6.27;;;5.77;;
17214;SDS011;8723;51.502;6.918;2024-02-14T06:12:16;8.13;;;6.70;;
17214;SDS011;8723;51.502;6.918;2024-02-14T06:14:43;8.40;;;7.37;;
17214;SDS011;8723;51.502;6.918;2024-02-14T06:17:10;7.70;;;7.03;;
17214;SDS011;8723;51.502;6.918;2024-02-14T06:19:39;7.83;;;7.13;;
17214;SDS011;8723;51.502;6.918;2024-02-14T06:22:06;9.60;;;8.00;;
17214;SDS011;8723;51.502;6.918;2024-02-14T06:24:34;9.53;;;8.63;;
17214;SDS011;8723;51.502;6.918;2024-02-14T06:27:01;10.20;;;9.23;;
17214;SDS011;8723;51.502;6.918;2024-02-14T06:29:28;11.43;;;9.83;;
17214;SDS011;8723;51.502;6.918;2024-02-14T06:31:56;11.00;;;9.90;;
17214;SDS011;8723;51.502;6.918;2024-02-14T06:34:23;11.33;;;10.23;;
17214;SDS011;8723;51.502;6.918;2024-02-14T06:36:52;11.60;;;10.40;;
17214;SDS011;8723;51.502;6.918;2024-02-14T06:39:19;9.70;;;8.70;;
17214;SDS011;8723;51.502;6.918;2024-02-14T06:41:46;10.60;;;9.70;;
17214;SDS011;8723;51.502;6.918;2024-02-14T06:44:13;9.90;;;9.00;;
17214;SDS011;8723;51.502;6.918;2024-02-14T06:46:41;10.50;;;9.60;;
17214;SDS011;8723;51.502;6.918;2024-02-14T06:49:08;11.93;;;10.83;;
17214;SDS011;8723;51.502;6.918;2024-02-14T06:51:35;11.60;;;10.70;;
17214;SDS011;8723;51.502;6.918;2024-02-14T06:54:05;10.93;;;9.90;;
17214;SDS011;8723;51.502;6.918;2024-02-14T06:56:32;10.90;;;9.83;;
17214;SDS011;8723;51.502;6.918;2024-02-14T06:59:00;10.83;;;8.97;;
17214;SDS011;8723;51.502;6.918;2024-02-14T07:01:28;9.27;;;8.53;;
17214;SDS011;8723;51.502;6.918;2024-02-14T07:03:55;10.73;;;9.10;;
17214;SDS011;8723;51.502;6.918;2024-02-14T07:06:22;9.57;;;8.67;;
17214;SDS011;8723;51.502;6.918;2024-02-14T07:08:50;9.77;;;8.77;;
17214;SDS011;8723;51.502;6.918;2024-02-14T07:11:18;10.17;;;9.37;;
17214;SDS011;8723;51.502;6.918;2024-02-14T07:13:45;11.03;;;9.03;;
17214;SDS011;8723;51.502;6.918;2024-02-14T07:16:13;10.03;;;9.03;;
17214;SDS011;8723;51.502;6.918;2024-02-14T07:18:40;10.07;;;9.20;;
17214;SDS011;8723;51.502;6.918;2024-02-14T07:21:07;11.27;;;10.17;;
17214;SDS011;8723;51.502;6.918;2024-02-14T07:23:34;11.17;;;10.17;;
17214;SDS011;8723;51.502;6.918;2024-02-14T07:26:01;11.57;;;10.57;;
17214;SDS011;8723;51.502;6.918;2024-02-14T07:28:30;11.67;;;10.50;;
17214;SDS011;8723;51.502;6.918;2024-02-14T07:30:57;11.57;;;10.63;;
17214;SDS011;8723;51.502;6.918;2024-02-14T07:33:24;11.67;;;10.63;;
17214;SDS011;8723;51.502;6.918;2024-02-14T07:35:52;10.87;;;9.97;;
17214;SDS011;8723;51.502;6.918;2024-02-14T07:38:19;9.47;;;8.77;;
17214;SDS011;8723;51.502;6.918;2024-02-14T07:40:48;9.00;;;8.30;;
17214;SDS011;8723;51.502;6.918;2024-02-14T07:43:15;10.00;;;9.20;;
17214;SDS011;8723;51.502;6.918;2024-02-14T07:45:43;9.17;;;8.47;;
17214;SDS011;8723;51.502;6.918;2024-02-14T07:48:11;9.23;;;8.43;;
17214;SDS011;8723;51.502;6.918;2024-02-14T07:50:38;8.90;;;8.10;;
17214;SDS011;8723;51.502;6.918;2024-02-14T07:53:05;8.90;;;8.20;;
17214;SDS011;8723;51.502;6.918;2024-02-14T07:55:32;9.40;;;8.03;;
17214;SDS011;8723;51.502;6.918;2024-02-14T07:57:59;8.93;;;8.23;;
17214;SDS011;8723;51.502;6.918;2024-02-14T08:00:26;8.60;;;7.53;;
17214;SDS011;8723;51.502;6.918;2024-02-14T08:02:55;8.93;;;7.30;;
17214;SDS011;8723;51.502;6.918;2024-02-14T08:05:22;8.07;;;7.30;;
17214;SDS011;8723;51.502;6.918;2024-02-14T08:07:49;8.03;;;7.33;;
17214;SDS011;8723;51.502;6.918;2024-02-14T08:10:16;8.53;;;7.00;;
17214;SDS011;8723;51.502;6.918;2024-02-14T08:12:44;8.37;;;7.33;;
17214;SDS011;8723;51.502;6.918;2024-02-14T08:15:12;8.17;;;7.57;;
17214;SDS011;8723;51.502;6.918;2024-02-14T08:17:39;7.53;;;6.73;;
17214;SDS011;8723;51.502;6.918;2024-02-14T08:20:09;7.67;;;6.97;;
17214;SDS011;8723;51.502;6.918;2024-02-14T08:22:36;6.57;;;6.07;;
17214;SDS011;8723;51.502;6.918;2024-02-14T08:25:04;7.00;;;6.33;;
17214;SDS011;8723;51.502;6.918;2024-02-14T08:27:32;6.80;;;6.10;;
17214;SDS011;8723;51.502;6.918;2024-02-14T08:29:59;7.43;;;6.43;;
17214;SDS011;8723;51.502;6.918;2024-02-14T08:32:27;6.15;;;5.65;;
17214;SDS011;8723;51.502;6.918;2024-02-14T08:34:54;5.90;;;5.30;;
17214;SDS011;8723;51.502;6.918;2024-02-14T08:37:22;5.30;;;4.90;;
17214;SDS011;8723;51.502;6.918;2024-02-14T08:39:50;6.03;;;5.20;;
17214;SDS011;8723;51.502;6.918;2024-02-14T08:42:17;5.90;;;5.30;;
17214;SDS011;8723;51.502;6.918;2024-02-14T08:44:44;6.32;;;5.57;;
17214;SDS011;8723;51.502;6.918;2024-02-14T08:47:11;6.63;;;5.40;;
17214;SDS011;8723;51.502;6.918;2024-02-14T08:49:40;5.37;;;4.97;;
17214;SDS011;8723;51.502;6.918;2024-02-14T08:52:07;5.23;;;4.90;;
17214;SDS011;8723;51.502;6.918;2024-02-14T08:54:37;6.47;;;5.87;;
17214;SDS011;8723;51.502;6.918;2024-02-14T08:57:04;6.00;;;5.27;;
17214;SDS011;8723;51.502;6.918;2024-02-14T08:59:32;8.53;;;5.90;;
17214;SDS011;8723;51.502;6.918;2024-02-14T09:01:59;5.73;;;5.30;;
17214;SDS011;8723;51.502;6.918;2024-02-14T09:04:26;6.07;;;5.50;;
17214;SDS011;8723;51.502;6.918;2024-02-14T09:06:54;8.30;;;5.33;;
17214;SDS011;8723;51.502;6.918;2024-02-14T09:09:21;7.53;;;5.50;;
17214;SDS011;8723;51.502;6.918;2024-02-14T09:11:49;5.50;;;4.97;;
17214;SDS011;8723;51.502;6.918;2024-02-14T09:14:17;6.67;;;5.90;;
17214;SDS011;8723;51.502;6.918;2024-02-14T09:16:44;7.17;;;5.90;;
17214;SDS011;8723;51.502;6.918;2024-02-14T09:19:12;7.07;;;6.35;;
17214;SDS011;8723;51.502;6.918;2024-02-14T09:21:39;5.83;;;5.00;;
17214;SDS011;8723;51.502;6.918;2024-02-14T09:24:07;5.83;;;5.23;;
17214;SDS011;8723;51.502;6.918;2024-02-14T09:26:34;7.50;;;4.67;;
17214;SDS011;8723;51.502;6.918;2024-02-14T09:29:02;4.77;;;4.33;;
17214;SDS011;8723;51.502;6.918;2024-02-14T09:31:30;5.20;;;4.70;;
17214;SDS011;8723;51.502;6.918;2024-02-14T09:33:57;4.83;;;4.43;;
17214;SDS011;8723;51.502;6.918;2024-02-14T09:36:26;5.03;;;4.53;;
17214;SDS011;8723;51.502;6.918;2024-02-14T09:38:54;5.90;;;5.10;;
17214;SDS011;8723;51.502;6.918;2024-02-14T09:41:22;5.80;;;4.93;;
17214;SDS011;8723;51.502;6.918;2024-02-14T09:43:52;7.10;;;5.17;;
17214;SDS011;8723;51.502;6.918;2024-02-14T09:46:21;5.23;;;4.47;;
17214;SDS011;8723;51.502;6.918;2024-02-14T09:48:50;4.43;;;4.03;;
17214;SDS011;8723;51.502;6.918;2024-02-14T09:51:17;6.83;;;5.17;;
17214;SDS011;8723;51.502;6.918;2024-02-14T09:53:44;6.87;;;4.97;;
17214;SDS011;8723;51.502;6.918;2024-02-14T09:56:12;5.63;;;4.77;;
17214;SDS011;8723;51.502;6.918;2024-02-14T09:58:41;5.77;;;4.50;;
17214;SDS011;8723;51.502;6.918;2024-02-14T10:01:09;4.90;;;4.30;;
17214;SDS011;8723;51.502;6.918;2024-02-14T10:03:37;4.63;;;4.23;;
17214;SDS011;8723;51.502;6.918;2024-02-14T10:06:05;7.77;;;4.57;;
17214;SDS011;8723;51.502;6.918;2024-02-14T10:08:32;6.87;;;4.30;;
17214;SDS011;8723;51.502;6.918;2024-02-14T10:11:00;5.30;;;4.27;;
17214;SDS011;8723;51.502;6.918;2024-02-14T10:13:29;4.57;;;4.17;;
17214;SDS011;8723;51.502;6.918;2024-02-14T10:15:56;6.03;;;4.20;;
17214;SDS011;8723;51.502;6.918;2024-02-14T10:18:24;5.40;;;4.20;;
17214;SDS011;8723;51.502;6.918;2024-02-14T10:20:54;5.93;;;4.00;;
17214;SDS011;8723;51.502;6.918;2024-02-14T10:23:21;4.57;;;3.67;;
17214;SDS011;8723;51.502;6.918;2024-02-14T10:25:49;5.83;;;3.70;;
17214;SDS011;8723;51.502;6.918;2024-02-14T10:28:16;7.40;;;4.57;;
17214;SDS011;8723;51.502;6.918;2024-02-14T10:30:45;6.57;;;4.17;;
17214;SDS011;8723;51.502;6.918;2024-02-14T10:33:12;4.97;;;4.10;;
17214;SDS011;8723;51.502;6.918;2024-02-14T10:35:40;5.33;;;3.83;;
17214;SDS011;8723;51.502;6.918;2024-02-14T10:38:09;6.33;;;4.13;;
17214;SDS011;8723;51.502;6.918;2024-02-14T10:40:37;4.67;;;4.10;;
17214;SDS011;8723;51.502;6.918;2024-02-14T10:43:05;4.37;;;3.63;;
17214;SDS011;8723;51.502;6.918;2024-02-14T10:45:34;7.37;;;4.63;;
17214;SDS011;8723;51.502;6.918;2024-02-14T10:48:01;5.57;;;3.70;;
17214;SDS011;8723;51.502;6.918;2024-02-14T10:50:32;6.70;;;3.80;;
17214;SDS011;8723;51.502;6.918;2024-02-14T10:53:00;4.13;;;3.17;;
17214;SDS011;8723;51.502;6.918;2024-02-14T10:55:32;4.47;;;3.40;;
17214;SDS011;8723;51.502;6.918;2024-02-14T10:58:00;7.23;;;3.30;;
17214;SDS011;8723;51.502;6.918;2024-02-14T11:00:28;5.60;;;3.83;;
17214;SDS011;8723;51.502;6.918;2024-02-14T11:02:57;8.33;;;4.20;;
17214;SDS011;8723;51.502;6.918;2024-02-14T11:05:25;5.37;;;4.30;;
17214;SDS011;8723;51.502;6.918;2024-02-14T11:07:53;5.77;;;4.00;;
17214;SDS011;8723;51.502;6.918;2024-02-14T11:10:22;7.27;;;3.80;;
17214;SDS011;8723;51.502;6.918;2024-02-14T11:12:51;8.03;;;4.43;;
17214;SDS011;8723;51.502;6.918;2024-02-14T11:15:21;7.33;;;4.57;;
17214;SDS011;8723;51.502;6.918;2024-02-14T11:17:49;5.80;;;4.80;;
17214;SDS011;8723;51.502;6.918;2024-02-14T11:20:17;6.57;;;5.20;;
17214;SDS011;8723;51.502;6.918;2024-02-14T11:22:54;7.03;;;4.50;;
17214;SDS011;8723;51.502;6.918;2024-02-14T11:25:22;6.60;;;4.83;;
17214;SDS011;8723;51.502;6.918;2024-02-14T11:27:52;6.70;;;4.57;;
17214;SDS011;8723;51.502;6.918;2024-02-14T11:30:28;4.57;;;4.10;;
17214;SDS011;8723;51.502;6.918;2024-02-14T11:33:08;5.47;;;4.90;;
17214;SDS011;8723;51.502;6.918;2024-02-14T11:35:38;6.17;;;4.60;;
17214;SDS011;8723;51.502;6.918;2024-02-14T11:38:06;5.53;;;4.27;;
17214;SDS011;8723;51.502;6.918;2024-02-14T11:40:33;4.97;;;4.47;;
17214;SDS011;8723;51.502;6.918;2024-02-14T11:43:01;4.50;;;4.03;;
17214;SDS011;8723;51.502;6.918;2024-02-14T11:45:29;6.23;;;4.20;;
17214;SDS011;8723;51.502;6.918;2024-02-14T11:47:56;7.23;;;4.17;;
17214;SDS011;8723;51.502;6.918;2024-02-14T11:50:23;5.10;;;3.60;;
17214;SDS011;8723;51.502;6.918;2024-02-14T11:52:50;3.53;;;3.13;;
17214;SDS011;8723;51.502;6.918;2024-02-14T11:55:18;4.00;;;3.63;;
17214;SDS011;8723;51.502;6.918;2024-02-14T11:57:54;4.20;;;3.80;;
17214;SDS011;8723;51.502;6.918;2024-02-14T12:00:23;6.73;;;3.67;;
17214;SDS011;8723;51.502;6.918;2024-02-14T12:02:50;3.23;;;2.83;;
17214;SDS011;8723;51.502;6.918;2024-02-14T12:05:18;4.10;;;2.60;;
17214;SDS011;8723;51.502;6.918;2024-02-14T12:07:45;3.03;;;2.70;;
17214;SDS011;8723;51.502;6.918;2024-02-14T12:10:12;2.97;;;2.53;;
17214;SDS011;8723;51.502;6.918;2024-02-14T12:12:40;3.77;;;2.57;;
17214;SDS011;8723;51.502;6.918;2024-02-14T12:15:09;2.60;;;2.40;;
17214;SDS011;8723;51.502;6.918;2024-02-14T12:17:41;2.97;;;2.40;;
17214;SDS011;8723;51.502;6.918;2024-02-14T12:20:09;2.97;;;2.70;;
17214;SDS011;8723;51.502;6.918;2024-02-14T12:22:38;4.83;;;2.53;;
17214;SDS011;8723;51.502;6.918;2024-02-14T12:25:05;3.17;;;2.50;;
17214;SDS011;8723;51.502;6.918;2024-02-14T12:27:33;4.70;;;2.50;;
17214;SDS011;8723;51.502;6.918;2024-02-14T12:30:02;2.87;;;2.67;;
17214;SDS011;8723;51.502;6.918;2024-02-14T12:32:30;3.10;;;2.50;;
17214;SDS011;8723;51.502;6.918;2024-02-14T12:34:59;2.60;;;2.27;;
17214;SDS011;8723;51.502;6.918;2024-02-14T12:37:26;2.40;;;2.23;;
17214;SDS011;8723;51.502;6.918;2024-02-14T12:39:54;3.43;;;2.93;;
17214;SDS011;8723;51.502;6.918;2024-02-14T12:42:21;3.10;;;2.60;;
17214;SDS011;8723;51.502;6.918;2024-02-14T12:44:51;3.20;;;2.80;;
17214;SDS011;8723;51.502;6.918;2024-02-14T12:47:18;3.57;;;3.27;;
17214;SDS011;8723;51.502;6.918;2024-02-14T12:49:46;3.20;;;2.70;;
17214;SDS011;8723;51.502;6.918;2024-02-14T12:52:16;5.13;;;3.43;;
17214;SDS011;8723;51.502;6.918;2024-02-14T12:54:43;3.10;;;2.90;;
17214;SDS011;8723;51.502;6.918;2024-02-14T12:57:10;3.40;;;3.10;;
17214;SDS011;8723;51.502;6.918;2024-02-14T12:59:37;3.77;;;3.43;;
17214;SDS011;8723;51.502;6.918;2024-02-14T13:02:04;3.50;;;3.20;;
17214;SDS011;8723;51.502;6.918;2024-02-14T13:04:32;3.83;;;3.47;;
17214;SDS011;8723;51.502;6.918;2024-02-14T13:07:00;4.40;;;4.10;;
17214;SDS011;8723;51.502;6.918;2024-02-14T13:09:28;3.30;;;3.00;;
17214;SDS011;8723;51.502;6.918;2024-02-14T13:11:55;3.40;;;3.10;;
17214;SDS011;8723;51.502;6.918;2024-02-14T13:14:23;4.03;;;2.20;;
17214;SDS011;8723;51.502;6.918;2024-02-14T13:16:51;4.63;;;3.23;;
17214;SDS011;8723;51.502;6.918;2024-02-14T13:19:18;5.03;;;3.07;;
17214;SDS011;8723;51.502;6.918;2024-02-14T13:21:46;3.27;;;2.77;;
17214;SDS011;8723;51.502;6.918;2024-02-14T13:24:13;3.00;;;2.70;;
17214;SDS011;8723;51.502;6.918;2024-02-14T13:26:42;3.63;;;2.80;;
17214;SDS011;8723;51.502;6.918;2024-02-14T13:29:10;3.10;;;2.40;;
17214;SDS011;8723;51.502;6.918;2024-02-14T13:31:37;2.37;;;2.17;;
17214;SDS011;8723;51.502;6.918;2024-02-14T13:34:04;3.00;;;1.93;;
17214;SDS011;8723;51.502;6.918;2024-02-14T13:36:31;3.10;;;2.23;;
17214;SDS011;8723;51.502;6.918;2024-02-14T13:38:58;2.27;;;2.03;;
17214;SDS011;8723;51.502;6.918;2024-02-14T13:41:26;3.53;;;2.63;;
17214;SDS011;8723;51.502;6.918;2024-02-14T13:43:54;2.20;;;2.00;;
17214;SDS011;8723;51.502;6.918;2024-02-14T13:46:22;2.67;;;2.47;;
17214;SDS011;8723;51.502;6.918;2024-02-14T13:48:51;3.13;;;2.40;;
17214;SDS011;8723;51.502;6.918;2024-02-14T13:51:19;3.33;;;2.20;;
17214;SDS011;8723;51.502;6.918;2024-02-14T13:53:47;3.30;;;1.80;;
17214;SDS011;8723;51.502;6.918;2024-02-14T13:56:14;3.03;;;2.00;;
17214;SDS011;8723;51.502;6.918;2024-02-14T13:58:42;2.87;;;1.93;;
17214;SDS011;8723;51.502;6.918;2024-02-14T14:01:10;3.73;;;2.40;;
17214;SDS011;8723;51.502;6.918;2024-02-14T14:03:38;3.10;;;2.07;;
17214;SDS011;8723;51.502;6.918;2024-02-14T14:06:06;2.17;;;1.87;;
17214;SDS011;8723;51.502;6.918;2024-02-14T14:08:34;3.57;;;2.30;;
17214;SDS011;8723;51.502;6.918;2024-02-14T14:11:02;3.10;;;2.00;;
17214;SDS011;8723;51.502;6.918;2024-02-14T14:13:29;2.17;;;1.90;;
17214;SDS011;8723;51.502;6.918;2024-02-14T14:15:58;2.30;;;2.00;;
17214;SDS011;8723;51.502;6.918;2024-02-14T14:18:27;2.07;;;1.90;;
17214;SDS011;8723;51.502;6.918;2024-02-14T14:20:54;2.27;;;2.07;;
17214;SDS011;8723;51.502;6.918;2024-02-14T14:23:21;3.40;;;1.57;;
17214;SDS011;8723;51.502;6.918;2024-02-14T14:25:48;1.90;;;1.80;;
17214;SDS011;8723;51.502;6.918;2024-02-14T14:28:15;2.30;;;2.07;;
17214;SDS011;8723;51.502;6.918;2024-02-14T14:30:45;3.80;;;2.10;;
17214;SDS011;8723;51.502;6.918;2024-02-14T14:33:13;2.57;;;1.80;;
17214;SDS011;8723;51.502;6.918;2024-02-14T14:35:42;1.93;;;1.70;;
17214;SDS011;8723;51.502;6.918;2024-02-14T14:38:09;2.10;;;1.90;;
17214;SDS011;8723;51.502;6.918;2024-02-14T14:40:36;1.70;;;1.60;;
17214;SDS011;8723;51.502;6.918;2024-02-14T14:43:04;3.00;;;1.87;;
17214;SDS011;8723;51.502;6.918;2024-02-14T14:45:32;2.40;;;2.20;;
17214;SDS011;8723;51.502;6.918;2024-02-14T14:47:59;3.27;;;2.50;;
17214;SDS011;8723;51.502;6.918;2024-02-14T14:50:26;3.73;;;2.97;;
17214;SDS011;8723;51.502;6.918;2024-02-14T14:52:55;4.70;;;2.40;;
17214;SDS011;8723;51.502;6.918;2024-02-14T14:55:23;3.80;;;2.77;;
17214;SDS011;8723;51.502;6.918;2024-02-14T14:57:50;2.90;;;2.63;;
17214;SDS011;8723;51.502;6.918;2024-02-14T15:00:21;2.60;;;2.00;;
17214;SDS011;8723;51.502;6.918;2024-02-14T15:02:48;2.67;;;2.47;;
17214;SDS011;8723;51.502;6.918;2024-02-14T15:05:16;3.33;;;3.13;;
17214;SDS011;8723;51.502;6.918;2024-02-14T15:07:44;3.23;;;2.40;;
17214;SDS011;8723;51.502;6.918;2024-02-14T15:10:14;2.20;;;2.00;;